Time;durP1;ratioP1;P1;durP2;ratioP2;P2;SDS_P1;SDS_P2;PMS_P1;PMS_P2;Temp;Humidity;BMP_temperature;BMP_pressure;BME280_temperature;BME280_humidity;BME280_pressure;Samples;Min_cycle;Max_cycle;Signal;HPM_P1;HPM_P2
2023/01/26 00:01:23;;;;;;;80.13;41.70;;;;;;;2.72;100.00;100354.97;5114597;28;20016;-72
2023/01/26 00:03:49;;;;;;;85.88;44.40;;;;;;;2.59;100.00;100327.56;5114421;28;20080;-72
2023/01/26 00:06:17;;;;;;;90.38;47.05;;;;;;;2.73;100.00;100351.50;5114259;28;20059;-72
2023/01/26 00:08:48;;;;;;;87.75;45.85;;;;;;;2.60;100.00;100326.69;5114322;28;20024;-72
2023/01/26 00:11:15;;;;;;;93.53;48.78;;;;;;;2.75;100.00;100351.53;5114395;28;20431;-72
2023/01/26 00:13:41;;;;;;;93.82;49.47;;;;;;;2.72;100.00;100349.81;5114424;28;20023;-72
2023/01/26 00:16:09;;;;;;;89.03;43.88;;;;;;;2.60;100.00;100320.72;5113944;28;20034;-72
2023/01/26 00:18:36;;;;;;;78.80;42.85;;;;;;;2.71;100.00;100348.09;5114199;28;20031;-72
2023/01/26 00:21:02;;;;;;;85.00;43.45;;;;;;;2.68;100.00;100336.97;5113859;28;20051;-72
2023/01/26 00:23:29;;;;;;;98.93;47.33;;;;;;;2.56;100.00;100316.44;5114240;28;20073;-72
2023/01/26 00:25:55;;;;;;;83.55;43.33;;;;;;;2.47;100.00;100331.03;5113857;28;20019;-72
2023/01/26 00:28:20;;;;;;;87.88;43.70;;;;;;;2.45;100.00;100326.78;5114020;28;20394;-72
2023/01/26 00:30:46;;;;;;;83.75;44.42;;;;;;;2.56;100.00;100332.72;5113927;28;20482;-73
2023/01/26 00:33:11;;;;;;;80.05;42.80;;;;;;;2.57;100.00;100326.72;5113597;28;20047;-72
2023/01/26 00:35:37;;;;;;;84.72;44.15;;;;;;;2.57;100.00;100337.03;5113776;28;20028;-72
2023/01/26 00:38:03;;;;;;;93.95;47.05;;;;;;;2.42;100.00;100312.19;5113441;28;20085;-72
2023/01/26 00:40:29;;;;;;;93.63;47.65;;;;;;;2.42;100.00;100303.63;5113853;28;20036;-73
2023/01/26 00:42:55;;;;;;;94.55;45.58;;;;;;;2.58;100.00;100328.44;5113566;28;20136;-72
2023/01/26 00:45:21;;;;;;;88.40;43.08;;;;;;;2.61;100.00;100331.00;5113602;28;20028;-73
2023/01/26 00:47:46;;;;;;;119.25;48.47;;;;;;;2.51;100.00;100311.31;5113644;28;20036;-72
2023/01/26 00:50:11;;;;;;;126.70;51.38;;;;;;;2.68;100.00;100331.81;5113290;28;20024;-72
2023/01/26 00:52:37;;;;;;;105.45;45.60;;;;;;;2.70;100.00;100330.13;5113390;28;20388;-73
2023/01/26 00:55:02;;;;;;;95.70;46.63;;;;;;;2.69;100.00;100324.09;5113333;28;20020;-72
2023/01/26 00:57:28;;;;;;;105.20;47.63;;;;;;;2.73;100.00;100332.66;5113787;28;20122;-72
2023/01/26 00:59:53;;;;;;;90.82;45.55;;;;;;;2.50;100.00;100301.91;5113310;28;20027;-73
2023/01/26 01:02:19;;;;;;;80.28;44.22;;;;;;;2.53;100.00;100311.28;5113183;28;20038;-73
2023/01/26 01:04:44;;;;;;;84.78;43.95;;;;;;;2.62;100.00;100329.28;5113184;28;20028;-72
2023/01/26 01:07:09;;;;;;;81.88;41.70;;;;;;;2.63;100.00;100333.56;5112891;28;20157;-72
2023/01/26 01:09:35;;;;;;;89.13;46.38;;;;;;;2.48;100.00;100299.31;5113232;28;20088;-72
2023/01/26 01:12:00;;;;;;;95.18;49.10;;;;;;;2.55;100.00;100310.44;5113032;28;20465;-72
2023/01/26 01:14:25;;;;;;;97.35;51.78;;;;;;;2.52;100.00;100291.59;5113142;28;20027;-72
2023/01/26 01:16:51;;;;;;;94.15;50.40;;;;;;;2.69;100.00;100312.94;5113125;28;20110;-72
2023/01/26 01:19:17;;;;;;;102.50;50.92;;;;;;;2.69;100.00;100321.53;5112782;28;20046;-72
2023/01/26 01:21:43;;;;;;;87.00;47.05;;;;;;;2.67;100.00;100318.13;5112577;28;20046;-72
2023/01/26 01:24:09;;;;;;;87.65;45.72;;;;;;;2.70;100.00;100317.25;5113062;28;20467;-72
2023/01/26 01:26:34;;;;;;;82.05;43.85;;;;;;;2.71;100.00;100317.25;5113304;28;20336;-72
2023/01/26 01:29:00;;;;;;;84.47;45.95;;;;;;;2.67;100.00;100323.25;5112645;28;20027;-72
2023/01/26 01:31:28;;;;;;;101.38;50.97;;;;;;;2.48;100.00;100301.03;5112693;28;20536;-72
2023/01/26 01:33:53;;;;;;;106.50;54.78;;;;;;;2.43;100.00;100295.91;5112675;28;20059;-72
2023/01/26 01:36:19;;;;;;;173.38;88.00;;;;;;;2.60;100.00;100307.84;5112323;28;20451;-72
2023/01/26 01:38:45;;;;;;;120.25;63.22;;;;;;;2.51;100.00;100311.31;5112779;28;20019;-73
2023/01/26 01:41:11;;;;;;;99.90;54.63;;;;;;;2.30;100.00;100267.69;5112477;28;20039;-73
2023/01/26 01:43:37;;;;;;;86.13;46.97;;;;;;;2.58;100.00;100301.88;5112737;28;20023;-72
2023/01/26 01:46:29;;;;;;;79.00;39.92;;;;;;;2.55;100.00;100304.44;5112308;28;20107;-72
2023/01/26 01:49:02;;;;;;;77.25;40.42;;;;;;;2.42;100.00;100277.91;5112450;28;20111;-72
2023/01/26 01:51:37;;;;;;;79.90;41.78;;;;;;;2.51;100.00;100295.88;5112399;28;20023;-72
2023/01/26 01:54:07;;;;;;;81.53;40.17;;;;;;;2.46;100.00;100290.75;5112307;28;20076;-73
2023/01/26 01:56:36;;;;;;;74.97;40.92;;;;;;;2.45;100.00;100295.91;5112482;28;20027;-72
2023/01/26 01:59:03;;;;;;;74.15;40.17;;;;;;;2.46;100.00;100282.19;5111990;28;20459;-72
2023/01/26 02:01:29;;;;;;;77.85;40.33;;;;;;;2.35;100.00;100260.81;5112541;28;20032;-72
2023/01/26 02:04:00;;;;;;;74.43;39.35;;;;;;;2.31;100.00;100254.81;5112459;28;20367;-73
2023/01/26 02:06:50;;;;;;;84.95;45.05;;;;;;;2.27;100.00;100254.81;5112320;28;20064;-72
2023/01/26 02:12:05;;;;;;;72.25;39.13;;;;;;;2.35;100.00;100264.22;5112100;28;20505;-72
2023/01/26 02:14:32;;;;;;;82.00;40.90;;;;;;;2.41;100.00;100281.34;5112196;28;20027;-72
2023/01/26 02:16:57;;;;;;;74.57;39.85;;;;;;;2.25;100.00;100253.13;5112357;28;20038;-72
2023/01/26 02:19:38;;;;;;;75.05;40.60;;;;;;;2.39;100.00;100265.91;5111979;28;20023;-72
2023/01/26 02:22:15;;;;;;;83.28;41.90;;;;;;;2.44;100.00;100269.34;5115952;28;20059;-72
2023/01/26 02:24:40;;;;;;;82.10;41.88;;;;;;;2.46;100.00;100256.47;5115147;28;20380;-72
2023/01/26 02:27:06;;;;;;;83.15;41.92;;;;;;;2.32;100.00;100240.22;5116261;28;20035;-72
2023/01/26 02:29:31;;;;;;;81.22;42.95;;;;;;;2.34;100.00;100230.81;5116592;28;20027;-72
2023/01/26 02:31:56;;;;;;;78.90;42.22;;;;;;;2.41;100.00;100260.78;5116278;28;20027;-72
2023/01/26 02:34:24;;;;;;;86.60;42.17;;;;;;;2.21;100.00;100220.59;5116016;27;20034;-72
2023/01/26 02:36:57;;;;;;;86.30;42.05;;;;;;;2.28;100.00;100246.28;5116158;28;20085;-72
2023/01/26 02:39:37;;;;;;;88.78;43.78;;;;;;;2.22;100.00;100222.28;5116040;28;20023;-72
2023/01/26 02:44:47;;;;;;;88.90;45.58;;;;;;;2.38;100.00;100235.09;5115871;28;20169;-73
2023/01/26 02:47:15;;;;;;;86.65;42.35;;;;;;;2.31;100.00;100228.25;5115630;28;20114;-72
2023/01/26 02:49:46;;;;;;;84.32;41.45;;;;;;;2.29;100.00;100227.41;5116040;28;20047;-72
2023/01/26 02:52:14;;;;;;;85.35;42.90;;;;;;;2.27;100.00;100221.41;5115757;28;20035;-72
2023/01/26 02:57:23;;;;;;;79.47;39.20;;;;;;;2.02;100.00;100198.38;5115472;28;20031;-72
2023/01/26 02:59:48;;;;;;;86.22;40.97;;;;;;;2.01;100.00;100209.50;5115811;28;20024;-72
2023/01/26 03:02:14;;;;;;;93.30;43.53;;;;;;;2.00;100.00;100211.22;5115586;28;20020;-72
2023/01/26 03:04:40;;;;;;;83.25;42.40;;;;;;;2.06;100.00;100196.63;5115660;28;20028;-72
2023/01/26 03:07:06;;;;;;;88.35;42.97;;;;;;;2.07;100.00;100186.38;5115449;28;20059;-72
2023/01/26 03:09:31;;;;;;;94.30;44.25;;;;;;;2.09;100.00;100204.34;5115552;28;20051;-72
2023/01/26 03:11:56;;;;;;;87.85;43.65;;;;;;;2.11;100.00;100203.50;5115406;28;20515;-72
2023/01/26 03:14:22;;;;;;;91.45;44.33;;;;;;;2.11;100.00;100189.81;5115316;28;20033;-72
2023/01/26 03:16:47;;;;;;;98.38;43.63;;;;;;;2.00;100.00;100180.41;5116032;28;20019;-72
2023/01/26 03:27:35;;;;;;;84.53;43.30;;;;;;;2.28;100.00;100159.75;5052081;28;20424;-72
2023/01/26 03:30:01;;;;;;;90.85;43.00;;;;;;;2.47;100.00;100171.63;5051901;28;20021;-72
2023/01/26 03:32:26;;;;;;;97.05;47.40;;;;;;;2.23;100.00;100126.34;5051592;28;20168;-72
2023/01/26 03:34:51;;;;;;;113.03;50.05;;;;;;;2.33;100.00;100141.72;5051989;28;20393;-72
2023/01/26 03:37:21;;;;;;;122.05;53.67;;;;;;;2.36;100.00;100152.84;5051731;28;20074;-72
2023/01/26 03:56:23;;;;;;;113.70;51.22;;;;;;;2.40;100.00;100133.09;5051481;28;20523;-72
2023/01/26 03:59:09;;;;;;;104.85;47.97;;;;;;;2.41;100.00;100138.25;5074194;28;20047;-72
2023/01/26 04:01:38;;;;;;;106.68;49.63;;;;;;;2.45;100.00;100137.38;5114598;28;20023;-72
2023/01/26 04:09:35;;;;;;;115.47;51.25;;;;;;;2.42;100.00;100124.53;5114576;28;20050;-72
2023/01/26 04:12:01;;;;;;;114.13;50.92;;;;;;;2.45;100.00;100139.09;5114320;28;20019;-73
2023/01/26 04:22:42;;;;;;;96.07;47.28;;;;;;;2.54;100.00;100154.47;5114081;28;20169;-72
2023/01/26 04:25:09;;;;;;;102.97;48.55;;;;;;;2.41;100.00;100133.09;5114239;28;20019;-72
2023/01/26 04:27:35;;;;;;;110.40;47.65;;;;;;;2.41;100.00;100151.09;5114166;28;20038;-72
2023/01/26 04:30:02;;;;;;;96.47;47.40;;;;;;;2.45;100.00;100157.94;5114112;28;20099;-72
2023/01/26 04:32:28;;;;;;;106.13;49.60;;;;;;;2.23;100.00;100131.50;5113921;28;20062;-72
2023/01/26 04:34:53;;;;;;;93.60;45.45;;;;;;;2.23;100.00;100130.63;5113885;28;20059;-72
2023/01/26 04:37:18;;;;;;;104.85;48.47;;;;;;;2.32;100.00;100153.72;5113619;28;20471;-73
2023/01/26 04:39:44;;;;;;;93.45;44.08;;;;;;;2.09;100.00;100122.97;5113679;28;20467;-72
2023/01/26 04:42:09;;;;;;;106.65;45.72;;;;;;;2.21;100.00;100151.19;5113678;28;20035;-72
2023/01/26 04:44:34;;;;;;;101.45;45.03;;;;;;;1.99;100.00;100131.59;5113383;28;20019;-72
2023/01/26 04:46:59;;;;;;;87.10;43.17;;;;;;;2.02;100.00;100128.16;5113819;28;20028;-72
2023/01/26 04:49:25;;;;;;;93.43;42.42;;;;;;;1.78;100.00;100094.00;5113426;28;20024;-72
2023/01/26 04:51:51;;;;;;;78.47;39.83;;;;;;;2.00;100.00;100141.84;5113495;28;20028;-72
2023/01/26 04:54:16;;;;;;;89.22;41.47;;;;;;;1.97;100.00;100129.00;5113184;27;20035;-73
2023/01/26 04:56:42;;;;;;;88.85;40.60;;;;;;;1.97;100.00;100125.59;5113497;28;20180;-72
2023/01/26 04:59:09;;;;;;;92.15;44.10;;;;;;;2.06;100.00;100117.00;5113521;28;20023;-72
2023/01/26 05:01:35;;;;;;;95.90;44.17;;;;;;;2.14;100.00;100133.22;5113486;28;20102;-72
2023/01/26 05:04:01;;;;;;;94.38;43.83;;;;;;;2.02;100.00;100115.28;5113294;28;20106;-72
2023/01/26 05:06:27;;;;;;;92.10;43.08;;;;;;;2.00;100.00;100115.31;5113266;28;20092;-72
2023/01/26 05:08:52;;;;;;;92.93;46.28;;;;;;;2.16;100.00;100137.50;5113069;28;20024;-72
2023/01/26 05:11:18;;;;;;;98.70;47.20;;;;;;;1.92;100.00;100107.63;5112880;28;20027;-72
2023/01/26 05:13:45;;;;;;;102.50;49.70;;;;;;;1.96;100.00;100103.34;5113180;28;20463;-72
2023/01/26 05:16:12;;;;;;;99.78;48.08;;;;;;;1.92;100.00;100112.78;5112906;28;20032;-72
2023/01/26 05:18:38;;;;;;;110.70;50.85;;;;;;;1.83;100.00;100099.13;5113013;28;20038;-72
2023/01/26 05:21:03;;;;;;;116.10;53.67;;;;;;;1.80;100.00;100101.69;5112929;28;20024;-73
2023/01/26 05:23:29;;;;;;;120.47;49.40;;;;;;;1.87;100.00;100119.66;5112855;28;20039;-72
2023/01/26 05:25:54;;;;;;;104.38;49.30;;;;;;;1.86;100.00;100119.66;5112843;28;20106;-72
2023/01/26 05:28:19;;;;;;;116.43;51.95;;;;;;;1.73;100.00;100093.19;5112609;28;20153;-72
2023/01/26 05:30:46;;;;;;;111.90;50.40;;;;;;;1.84;100.00;100101.69;5112876;28;20019;-72
2023/01/26 05:33:11;;;;;;;105.25;49.22;;;;;;;1.88;100.00;100090.53;5112670;28;20059;-72
2023/01/26 05:35:36;;;;;;;106.30;50.95;;;;;;;1.92;100.00;100099.94;5112979;28;20032;-72
2023/01/26 05:38:02;;;;;;;103.70;50.72;;;;;;;1.91;100.00;100079.41;5112625;28;20031;-72
2023/01/26 05:40:27;;;;;;;112.90;52.80;;;;;;;1.98;100.00;100093.91;5112571;28;20024;-72
2023/01/26 05:42:53;;;;;;;105.50;51.20;;;;;;;1.98;100.00;100092.22;5112992;28;20024;-72
2023/01/26 05:45:19;;;;;;;105.68;49.22;;;;;;;2.01;100.00;100088.75;5112375;28;20031;-72
2023/01/26 05:47:45;;;;;;;111.85;51.65;;;;;;;1.95;100.00;100102.50;5112772;27;20049;-72
2023/01/26 05:50:11;;;;;;;116.70;52.28;;;;;;;2.04;100.00;100119.59;5112503;28;20471;-72
2023/01/26 05:52:37;;;;;;;111.53;49.63;;;;;;;1.86;100.00;100094.84;5112240;28;20038;-73
2023/01/26 05:55:03;;;;;;;115.45;52.95;;;;;;;1.86;100.00;100115.38;5111376;28;20471;-72
2023/01/26 05:57:29;;;;;;;107.85;50.45;;;;;;;1.92;100.00;100119.63;5112525;28;20051;-72
2023/01/26 05:59:54;;;;;;;114.57;52.35;;;;;;;1.82;100.00;100103.41;5112459;28;20382;-73
2023/01/26 06:02:20;;;;;;;125.13;53.92;;;;;;;1.68;100.00;100090.59;5112241;28;20032;-72
2023/01/26 06:04:45;;;;;;;128.32;56.10;;;;;;;1.81;100.00;100105.97;5112290;28;20020;-72
2023/01/26 06:07:12;;;;;;;125.57;51.25;;;;;;;1.83;100.00;100101.69;5112221;28;20027;-72
2023/01/26 06:09:39;;;;;;;117.50;54.08;;;;;;;1.95;100.00;100104.22;5112103;28;20036;-72
2023/01/26 06:12:11;;;;;;;113.32;52.45;;;;;;;1.99;100.00;100106.75;5112417;28;20027;-73
2023/01/26 06:14:36;;;;;;;107.55;51.97;;;;;;;1.91;100.00;100076.84;5112139;28;20032;-73
2023/01/26 06:17:02;;;;;;;113.40;54.78;;;;;;;1.95;100.00;100081.94;5112366;28;20056;-74
2023/01/26 06:19:27;;;;;;;121.55;53.40;;;;;;;2.02;100.00;100090.47;5112115;28;20027;-73
2023/01/26 06:21:52;;;;;;;121.43;54.30;;;;;;;1.93;100.00;100090.50;5111924;28;20429;-74
2023/01/26 06:24:18;;;;;;;126.47;55.08;;;;;;;1.79;100.00;100074.31;5112105;28;20057;-73
2023/01/26 06:26:47;;;;;;;119.22;51.72;;;;;;;1.74;100.00;100084.59;5112271;28;20023;-73
2023/01/26 06:29:13;;;;;;;123.90;55.15;;;;;;;1.87;100.00;100091.41;5112194;28;20019;-73
2023/01/26 06:31:38;;;;;;;115.60;55.63;;;;;;;1.99;100.00;100108.47;5111899;28;20110;-73
2023/01/26 06:34:04;;;;;;;123.00;54.78;;;;;;;1.86;100.00;100084.56;5111985;28;20526;-74
2023/01/26 06:36:30;;;;;;;130.52;56.53;;;;;;;1.88;100.00;100094.81;5111948;28;20046;-73
2023/01/26 06:38:55;;;;;;;132.68;56.55;;;;;;;1.89;100.00;100101.66;5112363;28;20023;-73
2023/01/26 06:41:20;;;;;;;120.72;58.38;;;;;;;2.04;100.00;100118.72;5111875;28;20106;-73
2023/01/26 06:43:47;;;;;;;117.50;53.72;;;;;;;2.12;100.00;100114.41;5112138;28;20035;-73
2023/01/26 06:46:13;;;;;;;116.68;53.03;;;;;;;1.99;100.00;100083.63;5111949;28;20031;-73
2023/01/26 06:48:39;;;;;;;116.70;55.20;;;;;;;2.13;100.00;100101.53;5111670;28;20099;-73
2023/01/26 06:51:19;;;;;;;117.93;52.22;;;;;;;2.18;100.00;100112.66;5111872;28;20114;-73
2023/01/26 06:53:51;;;;;;;122.00;55.25;;;;;;;2.12;100.00;100099.84;5112057;28;20023;-73
2023/01/26 06:56:16;;;;;;;125.03;58.78;;;;;;;2.21;100.00;100115.22;5111827;28;20095;-73
2023/01/26 06:58:42;;;;;;;115.88;56.72;;;;;;;2.08;100.00;100092.16;5111720;28;20027;-73
2023/01/26 07:01:13;;;;;;;125.25;58.80;;;;;;;2.07;100.00;100075.91;5112247;28;20046;-73
2023/01/26 07:03:38;;;;;;;110.82;51.60;;;;;;;2.15;100.00;100087.00;5111540;28;20410;-73
2023/01/26 07:06:04;;;;;;;115.53;52.25;;;;;;;2.31;100.00;100107.44;5112563;28;20027;-74
2023/01/26 07:08:30;;;;;;;111.53;52.72;;;;;;;2.20;100.00;100082.69;5115426;27;20034;-73
2023/01/26 07:10:55;;;;;;;111.38;51.72;;;;;;;2.22;100.00;100080.09;5115582;28;20458;-73
2023/01/26 07:13:20;;;;;;;108.30;52.03;;;;;;;2.37;100.00;100112.56;5115290;28;20072;-73
2023/01/26 07:15:46;;;;;;;104.50;50.67;;;;;;;2.20;100.00;100082.69;5115364;28;20038;-74
2023/01/26 07:18:11;;;;;;;104.70;51.45;;;;;;;2.36;100.00;100110.84;5115459;28;20352;-73
2023/01/26 07:20:36;;;;;;;102.18;51.17;;;;;;;2.22;100.00;100083.50;5115483;28;20024;-73
2023/01/26 07:23:02;;;;;;;100.70;51.20;;;;;;;2.20;100.00;100071.53;5115288;28;20126;-73
2023/01/26 07:25:27;;;;;;;102.95;50.22;;;;;;;2.09;100.00;100057.91;5115076;28;20024;-73
2023/01/26 07:27:56;;;;;;;95.43;48.95;;;;;;;2.37;100.00;100089.44;5115295;28;20039;-73
2023/01/26 07:30:22;;;;;;;105.13;52.22;;;;;;;2.34;100.00;100092.88;5114963;28;20027;-73
2023/01/26 07:32:47;;;;;;;102.22;51.38;;;;;;;2.39;100.00;100098.81;5115421;28;20107;-73
2023/01/26 07:35:12;;;;;;;117.88;55.75;;;;;;;2.39;100.00;100098.81;5115227;28;20073;-73
2023/01/26 07:37:38;;;;;;;115.60;55.67;;;;;;;2.29;100.00;100075.78;5114900;28;20088;-73
2023/01/26 07:40:04;;;;;;;120.65;57.25;;;;;;;2.24;100.00;100068.09;5115075;28;20374;-74
2023/01/26 07:42:30;;;;;;;155.07;65.85;;;;;;;2.38;100.00;100088.56;5115024;28;20035;-73
2023/01/26 07:44:55;;;;;;;128.20;59.92;;;;;;;2.29;100.00;100076.63;5114677;27;20429;-73
2023/01/26 07:47:20;;;;;;;225.48;85.07;;;;;;;2.43;100.00;100102.22;5114746;28;20031;-73
2023/01/26 07:49:46;;;;;;;308.50;108.63;;;;;;;2.30;100.00;100077.47;5114786;28;20049;-73
2023/01/26 07:52:11;;;;;;;192.20;79.10;;;;;;;2.29;100.00;100083.47;5114845;28;20023;-73
2023/01/26 07:54:37;;;;;;;189.07;83.68;;;;;;;2.43;98.82;100103.09;5114464;28;20024;-73
2023/01/26 07:57:04;;;;;;;197.77;85.32;;;;;;;2.47;98.85;100107.34;5114664;28;20034;-73
2023/01/26 07:59:29;;;;;;;220.43;96.97;;;;;;;2.36;98.73;100087.69;5114203;28;20028;-74
2023/01/26 08:01:55;;;;;;;187.65;79.85;;;;;;;2.50;98.56;100109.06;5114513;28;20516;-73
2023/01/26 08:04:20;;;;;;;126.78;58.90;;;;;;;2.51;98.51;100115.91;5115047;27;20065;-73
2023/01/26 08:06:45;;;;;;;105.30;53.75;;;;;;;2.40;99.03;100098.00;5114854;28;20059;-73
2023/01/26 08:09:11;;;;;;;104.13;52.65;;;;;;;2.48;99.30;100108.19;5114468;28;20102;-73
2023/01/26 08:11:36;;;;;;;89.43;47.00;;;;;;;2.54;99.34;100118.47;5114143;28;20106;-73
2023/01/26 08:14:01;;;;;;;81.38;44.90;;;;;;;2.56;99.15;100110.72;5114212;28;20019;-73
2023/01/26 08:16:27;;;;;;;76.97;42.47;;;;;;;2.56;98.88;100126.16;5113410;28;20039;-73
2023/01/26 08:18:52;;;;;;;78.50;43.08;;;;;;;2.40;99.00;100094.53;5112055;28;20054;-73
2023/01/26 08:21:18;;;;;;;79.10;44.42;;;;;;;2.53;98.70;100100.44;5112821;28;20027;-73
2023/01/26 08:23:49;;;;;;;82.22;44.65;;;;;;;2.43;98.34;100089.38;5111126;28;20054;-73
2023/01/26 08:26:14;;;;;;;78.60;43.33;;;;;;;2.59;98.38;100110.72;5111086;28;20031;-73
2023/01/26 08:28:40;;;;;;;81.55;44.58;;;;;;;2.59;98.08;100105.56;5113708;28;20023;-73
2023/01/26 08:31:18;;;;;;;85.75;46.90;;;;;;;2.50;98.35;100089.34;5114190;28;20058;-73
2023/01/26 08:33:45;;;;;;;85.15;50.25;;;;;;;2.65;97.23;100106.34;5113926;28;20028;-74
2023/01/26 08:36:13;;;;;;;88.55;49.20;;;;;;;2.62;96.80;100103.84;5113488;28;20066;-73
2023/01/26 08:38:38;;;;;;;88.13;48.42;;;;;;;2.69;96.68;100110.63;5112641;28;20039;-73
2023/01/26 08:41:04;;;;;;;81.95;46.88;;;;;;;2.44;96.84;100067.94;5112803;28;20512;-73
2023/01/26 08:43:29;;;;;;;74.45;41.85;;;;;;;2.64;97.23;100094.38;5112278;28;20027;-73
2023/01/26 08:45:55;;;;;;;74.28;43.42;;;;;;;2.61;96.72;100078.09;5112532;28;20039;-73
2023/01/26 08:48:20;;;;;;;80.20;45.15;;;;;;;2.69;97.02;100082.31;5112450;28;20031;-73
2023/01/26 08:50:46;;;;;;;77.40;45.67;;;;;;;2.84;96.73;100104.53;5111924;28;20027;-73
2023/01/26 08:53:12;;;;;;;80.07;44.58;;;;;;;2.89;95.89;100109.63;5112574;28;20051;-74
2023/01/26 08:55:37;;;;;;;76.53;42.75;;;;;;;2.86;95.22;100096.78;5112346;28;20039;-73
2023/01/26 08:58:03;;;;;;;76.85;44.78;;;;;;;2.82;94.56;100083.09;5112538;28;20034;-74
2023/01/26 09:00:29;;;;;;;76.68;45.15;;;;;;;3.02;93.48;100110.38;5112156;28;20031;-73
2023/01/26 09:02:59;;;;;;;66.35;40.28;;;;;;;3.02;93.01;100100.94;5113614;28;20023;-73
2023/01/26 09:05:25;;;;;;;80.90;49.70;;;;;;;2.92;92.31;100086.47;5111706;28;20074;-73
2023/01/26 09:07:50;;;;;;;83.35;50.55;;;;;;;2.39;94.77;100106.53;5113198;28;20023;-73
2023/01/26 09:10:15;;;;;;;78.43;45.53;;;;;;;1.96;97.43;100109.34;5113125;28;20036;-73
2023/01/26 09:12:41;;;;;;;86.43;49.92;;;;;;;1.65;96.74;100111.16;5112801;28;20078;-73
2023/01/26 09:15:07;;;;;;;64.20;39.03;;;;;;;1.36;95.47;100100.13;5113252;28;20034;-73
2023/01/26 09:17:33;;;;;;;68.35;37.75;;;;;;;1.09;96.18;100088.16;5112944;28;20031;-73
2023/01/26 09:19:58;;;;;;;69.05;40.53;;;;;;;1.06;96.50;100098.47;5112985;28;20406;-73
2023/01/26 09:22:23;;;;;;;70.63;41.55;;;;;;;1.01;97.82;100108.69;5112667;28;20046;-73
2023/01/26 09:24:49;;;;;;;75.60;44.00;;;;;;;0.93;100.00;100101.03;5112857;28;20025;-73
2023/01/26 09:27:14;;;;;;;71.00;44.08;;;;;;;0.84;100.00;100079.66;5112821;28;20027;-73
2023/01/26 09:29:39;;;;;;;85.32;49.50;;;;;;;1.11;100.00;100109.56;5112617;28;20019;-73
2023/01/26 09:32:05;;;;;;;75.25;43.42;;;;;;;1.14;100.00;100110.41;5112897;28;20022;-73
2023/01/26 09:34:30;;;;;;;72.05;38.85;;;;;;;1.17;100.00;100107.84;5112604;28;20030;-73
2023/01/26 09:36:55;;;;;;;68.20;38.17;;;;;;;1.17;100.00;100104.41;5112797;28;20114;-73
2023/01/26 09:39:21;;;;;;;83.35;47.17;;;;;;;1.16;100.00;100093.31;5112602;28;20033;-73
2023/01/26 09:42:01;;;;;;;78.85;42.90;;;;;;;1.17;100.00;100101.84;5112319;28;20112;-73
2023/01/26 09:44:32;;;;;;;83.22;47.85;;;;;;;1.04;100.00;100071.94;5112499;28;20027;-73
2023/01/26 09:47:13;;;;;;;73.28;41.35;;;;;;;1.22;100.00;100101.00;5112698;28;20043;-73
2023/01/26 09:49:58;;;;;;;67.35;38.95;;;;;;;1.05;98.74;100065.94;5112381;28;20027;-73
2023/01/26 09:52:39;;;;;;;82.28;42.22;;;;;;;1.17;99.02;100082.19;5112790;28;20486;-73
2023/01/26 09:55:15;;;;;;;70.43;39.15;;;;;;;1.06;98.57;100067.69;5112717;28;20102;-74
2023/01/26 09:57:51;;;;;;;78.50;43.15;;;;;;;1.06;98.92;100057.41;5112487;28;20031;-73
2023/01/26 10:00:35;;;;;;;69.32;38.65;;;;;;;1.20;98.81;100083.91;5112349;28;20031;-73
2023/01/26 10:03:12;;;;;;;73.95;39.80;;;;;;;1.19;99.05;100085.59;5112551;28;20086;-73
2023/01/26 10:05:50;;;;;;;72.78;40.65;;;;;;;1.17;99.78;100076.19;5112090;28;20035;-72
2023/01/26 10:08:18;;;;;;;68.95;40.17;;;;;;;0.87;99.37;100031.78;5112229;28;20467;-73
2023/01/26 10:10:54;;;;;;;75.88;42.90;;;;;;;1.17;99.35;100078.75;5111960;28;20076;-73
2023/01/26 10:13:22;;;;;;;66.93;39.47;;;;;;;1.15;98.62;100075.34;5112442;28;20054;-73
2023/01/26 10:15:55;;;;;;;87.05;48.15;;;;;;;1.10;99.39;100065.09;5112146;28;20197;-73
2023/01/26 10:18:26;;;;;;;77.57;46.55;;;;;;;1.21;98.29;100076.19;5112129;28;20020;-73
2023/01/26 10:20:57;;;;;;;112.07;64.95;;;;;;;1.04;98.38;100043.72;5111978;28;20114;-73
2023/01/26 10:23:27;;;;;;;85.65;48.92;;;;;;;1.06;98.30;100045.44;5112303;28;20050;-73
2023/01/26 10:25:57;;;;;;;77.90;47.00;;;;;;;0.97;98.66;100025.78;5112259;28;20027;-73
2023/01/26 10:28:28;;;;;;;93.50;55.85;;;;;;;1.30;98.35;100072.75;5112271;28;20301;-73
2023/01/26 10:30:54;;;;;;;83.28;49.55;;;;;;;1.12;98.37;100044.56;5112114;28;20072;-73
2023/01/26 10:33:34;;;;;;;69.07;41.22;;;;;;;1.29;99.32;100076.16;5112155;28;20027;-73
2023/01/26 10:36:00;;;;;;;77.90;45.55;;;;;;;1.34;98.97;100071.88;5112027;28;20036;-73
2023/01/26 10:38:25;;;;;;;77.78;42.88;;;;;;;1.32;97.93;100078.75;5112265;28;20031;-73
2023/01/26 10:40:51;;;;;;;77.95;43.75;;;;;;;1.33;97.29;100075.31;5112668;28;20019;-73
2023/01/26 10:43:17;;;;;;;74.72;41.83;;;;;;;1.15;97.05;100042.00;5115997;28;20028;-73
2023/01/26 10:45:45;;;;;;;68.40;40.30;;;;;;;1.17;96.44;100037.72;5115724;28;20062;-72
2023/01/26 10:48:19;;;;;;;66.65;38.97;;;;;;;1.38;95.09;100070.16;5115840;28;20031;-73
2023/01/26 10:50:46;;;;;;;71.35;42.55;;;;;;;1.28;95.83;100040.25;5114487;28;20099;-72
2023/01/26 10:53:27;;;;;;;70.70;39.70;;;;;;;1.58;94.60;100063.25;5115969;28;20027;-73
2023/01/26 10:56:24;;;;;;;74.10;40.35;;;;;;;1.38;93.58;100068.44;5115564;28;20076;-72
2023/01/26 10:58:54;;;;;;;78.35;40.38;;;;;;;1.15;94.45;100048.00;5072485;28;20053;-73
2023/01/26 11:01:26;;;;;;;77.47;43.00;;;;;;;1.07;95.74;100038.59;5072518;28;20036;-73
2023/01/26 11:04:06;;;;;;;81.25;45.03;;;;;;;1.17;97.25;100058.22;5072207;28;20076;-73
2023/01/26 11:06:32;;;;;;;89.30;47.13;;;;;;;1.07;96.48;100033.47;5038732;28;20041;-73
2023/01/26 11:09:09;;;;;;;78.25;42.58;;;;;;;1.29;96.16;100057.34;5072521;28;20044;-73
2023/01/26 11:11:35;;;;;;;99.75;49.47;;;;;;;1.29;95.57;100060.78;5072297;28;20090;-73
2023/01/26 11:14:18;;;;;;;93.57;48.78;;;;;;;1.23;96.18;100056.53;5072415;28;20036;-73
2023/01/26 11:17:13;;;;;;;81.32;44.15;;;;;;;1.22;96.31;100047.13;5072097;28;20397;-73
2023/01/26 11:20:06;;;;;;;87.25;49.85;;;;;;;1.23;96.22;100047.97;5072068;28;20063;-73
2023/01/26 11:22:34;;;;;;;90.95;47.60;;;;;;;1.22;95.85;100046.25;5071812;28;20079;-73
2023/01/26 11:25:13;;;;;;;92.68;52.67;;;;;;;1.16;96.28;100031.72;5072196;28;20036;-73
2023/01/26 11:28:12;;;;;;;83.53;48.58;;;;;;;1.21;96.31;100032.56;5071902;28;20033;-73
2023/01/26 11:31:05;;;;;;;80.13;45.88;;;;;;;1.26;96.71;100042.81;5071879;28;20067;-73
2023/01/26 11:33:47;;;;;;;87.43;48.53;;;;;;;1.27;96.40;100033.44;5072387;28;20037;-73
2023/01/26 11:36:31;;;;;;;78.65;43.85;;;;;;;1.33;96.13;100023.97;5103276;28;20039;-73
2023/01/26 11:39:20;;;;;;;81.55;42.95;;;;;;;1.15;95.24;99993.25;5114998;28;20066;-73
2023/01/26 11:42:34;;;;;;;93.10;49.00;;;;;;;1.26;94.85;100009.47;5114815;28;20536;-73
2023/01/26 11:45:25;;;;;;;82.35;45.60;;;;;;;1.24;95.15;100008.63;4992365;28;20040;-73
2023/01/26 11:47:56;;;;;;;84.72;47.63;;;;;;;1.24;96.45;100013.75;4992680;28;20392;-73
2023/01/26 11:50:54;;;;;;;92.82;51.45;;;;;;;1.27;95.98;100018.03;4992433;28;20050;-73
2023/01/26 11:53:29;;;;;;;96.15;50.40;;;;;;;1.29;95.45;100013.75;4992330;28;20033;-73
2023/01/26 11:56:15;;;;;;;99.45;52.28;;;;;;;1.26;96.01;100006.88;4992070;28;20038;-73
2023/01/26 11:59:03;;;;;;;104.57;54.58;;;;;;;1.25;96.11;100007.75;4992062;28;20075;-73
2023/01/26 12:01:34;;;;;;;97.60;53.05;;;;;;;1.07;96.96;99975.31;4992211;28;20121;-73
2023/01/26 12:04:00;;;;;;;95.20;51.40;;;;;;;1.07;95.95;99975.31;4992216;28;20038;-73